Time;durP1;ratioP1;P1;durP2;ratioP2;P2;SDS_P1;SDS_P2;PMS_P1;PMS_P2;Temp;Humidity;BMP_temperature;BMP_pressure;BME280_temperature;BME280_humidity;BME280_pressure;Samples;Min_cycle;Max_cycle;Signal;HPM_P1;HPM_P2
2021/12/20 00:02:20;;;;;;;4.40;4.00;;;;;;;4.38;56.79;94366.91;5091564;28;20218;-64
2021/12/20 00:04:51;;;;;;;4.70;4.30;;;;;;;4.38;57.10;94377.84;5090773;28;20208;-64
2021/12/20 00:07:19;;;;;;;4.97;4.57;;;;;;;4.37;57.36;94387.16;5091202;28;20262;-64
2021/12/20 00:09:46;;;;;;;4.80;4.45;;;;;;;4.39;57.32;94384.88;5074983;28;20209;-64
2021/12/20 00:12:13;;;;;;;4.75;4.45;;;;;;;4.39;57.78;94390.34;5075267;28;20185;-64
2021/12/20 00:14:40;;;;;;;4.95;4.55;;;;;;;4.36;57.45;94386.38;5074988;28;20189;-64
2021/12/20 00:17:06;;;;;;;4.72;4.32;;;;;;;4.34;57.76;94394.06;5074695;28;20185;-64
2021/12/20 00:19:33;;;;;;;4.60;4.30;;;;;;;4.30;58.08;94393.94;5074975;28;20182;-64
2021/12/20 00:22:00;;;;;;;4.57;4.28;;;;;;;4.29;58.34;94386.88;5074717;28;20181;-64
2021/12/20 00:24:28;;;;;;;4.60;4.28;;;;;;;4.30;58.67;94399.41;5073753;28;20204;-65
2021/12/20 00:26:55;;;;;;;4.72;4.32;;;;;;;4.30;58.15;94385.75;5074903;28;20204;-65
2021/12/20 00:29:22;;;;;;;4.75;4.35;;;;;;;4.32;58.11;94385.41;5074823;28;20212;-65
2021/12/20 00:31:49;;;;;;;4.78;4.43;;;;;;;4.30;58.45;94376.75;5074590;28;20185;-65
2021/12/20 00:34:15;;;;;;;5.15;4.75;;;;;;;4.29;58.81;94367.78;5074567;28;20188;-64
2021/12/20 00:36:42;;;;;;;4.70;4.40;;;;;;;4.25;58.93;94368.78;5074512;28;20187;-64
2021/12/20 00:41:54;;;;;;;4.38;4.07;;;;;;;4.23;58.77;94360.91;5074400;28;20502;-64
2021/12/20 00:44:21;;;;;;;3.83;3.60;;;;;;;4.23;58.36;94368.28;5074418;28;20196;-64
2021/12/20 00:46:48;;;;;;;4.05;3.75;;;;;;;4.23;58.69;94355.44;5073515;28;20201;-64
2021/12/20 00:49:15;;;;;;;3.45;3.25;;;;;;;4.25;58.29;94363.31;5074393;28;20201;-64
2021/12/20 00:51:42;;;;;;;3.72;3.42;;;;;;;4.22;58.38;94353.06;5074584;28;20204;-64
2021/12/20 00:54:08;;;;;;;3.72;3.53;;;;;;;4.22;58.06;94342.94;5073812;28;20531;-64
2021/12/20 00:56:35;;;;;;;3.35;3.15;;;;;;;4.22;57.95;94344.84;5074507;28;20232;-64
2021/12/20 00:59:04;;;;;;;3.45;3.15;;;;;;;4.19;58.17;94349.03;5090658;28;20193;-64
2021/12/20 01:01:30;;;;;;;3.22;3.00;;;;;;;4.18;58.38;94360.31;5073663;28;20624;-64
2021/12/20 01:03:57;;;;;;;2.95;2.80;;;;;;;4.19;58.55;94370.88;5074551;28;20197;-64
2021/12/20 01:06:24;;;;;;;3.08;2.88;;;;;;;4.18;58.32;94360.31;5074489;28;20197;-64
2021/12/20 01:08:51;;;;;;;3.58;3.38;;;;;;;4.19;58.32;94364.63;5074591;28;20201;-64
2021/12/20 01:11:23;;;;;;;3.30;3.10;;;;;;;4.16;58.46;94377.00;5074617;28;20196;-64
2021/12/20 01:13:50;;;;;;;3.38;3.17;;;;;;;4.15;58.19;94361.75;5090357;28;20220;-64
2021/12/20 01:16:28;;;;;;;3.17;2.97;;;;;;;4.16;58.35;94382.44;5074001;28;20288;-64
2021/12/20 01:18:55;;;;;;;3.20;3.00;;;;;;;4.15;58.12;94371.88;5094029;28;20626;-64
2021/12/20 01:21:22;;;;;;;3.28;3.03;;;;;;;4.16;58.09;94368.00;5077137;28;20521;-65
2021/12/20 01:23:49;;;;;;;3.30;3.10;;;;;;;4.18;58.23;94382.94;5077571;28;20497;-64
2021/12/20 01:26:16;;;;;;;3.40;3.20;;;;;;;4.20;57.89;94367.00;5077948;28;20517;-64
2021/12/20 01:28:43;;;;;;;3.17;2.90;;;;;;;4.18;57.45;94369.28;5093831;28;20193;-64
2021/12/20 01:31:10;;;;;;;2.75;2.55;;;;;;;4.19;58.08;94386.47;5077073;28;20531;-65
2021/12/20 01:33:38;;;;;;;2.95;2.75;;;;;;;4.22;57.49;94378.41;5076921;28;20204;-65
2021/12/20 01:36:05;;;;;;;3.47;3.22;;;;;;;4.23;57.32;94371.03;5093631;28;20204;-65
2021/12/20 01:38:32;;;;;;;3.20;3.00;;;;;;;4.23;57.52;94360.91;5077645;28;20207;-65
2021/12/20 01:40:58;;;;;;;3.75;3.45;;;;;;;4.22;57.33;94355.78;5077308;28;20536;-65
2021/12/20 01:43:25;;;;;;;3.67;3.38;;;;;;;4.22;57.61;94363.97;5077260;28;20519;-65
2021/12/20 01:45:52;;;;;;;3.47;3.22;;;;;;;4.23;57.49;94354.63;5093471;28;20212;-65
2021/12/20 01:48:21;;;;;;;3.40;3.20;;;;;;;4.24;57.30;94358.97;5093737;28;20196;-65
2021/12/20 01:53:35;;;;;;;3.60;3.30;;;;;;;4.23;57.86;94360.91;5077353;28;20193;-65
2021/12/20 01:56:02;;;;;;;3.72;3.45;;;;;;;4.25;57.80;94366.84;5077084;28;20231;-65
2021/12/20 01:58:29;;;;;;;3.72;3.50;;;;;;;4.27;57.75;94358.31;5076926;28;20205;-65
2021/12/20 02:03:48;;;;;;;3.28;3.08;;;;;;;4.25;57.62;94366.03;5085753;28;20233;-64
2021/12/20 02:06:22;;;;;;;3.20;3.00;;;;;;;4.24;57.72;94376.13;5093555;28;20205;-64
2021/12/20 02:08:49;;;;;;;3.20;3.00;;;;;;;4.18;57.91;94368.50;5077135;28;20188;-64
2021/12/20 02:11:19;;;;;;;3.75;3.50;;;;;;;4.18;58.08;94363.03;5077157;28;20185;-64
2021/12/20 02:13:46;;;;;;;3.33;3.13;;;;;;;4.16;57.80;94354.34;5093097;28;20204;-64
2021/12/20 02:16:13;;;;;;;3.90;3.60;;;;;;;4.21;57.85;94367.81;5076081;28;20193;-64
2021/12/20 02:18:40;;;;;;;3.65;3.40;;;;;;;4.24;57.81;94365.22;5075718;28;20632;-64
2021/12/20 02:21:08;;;;;;;3.60;3.30;;;;;;;4.23;57.79;94376.47;5077155;28;20181;-65
2021/12/20 02:23:35;;;;;;;4.10;3.80;;;;;;;4.25;58.00;94371.50;5075700;28;20197;-65
2021/12/20 02:26:02;;;;;;;3.90;3.70;;;;;;;4.25;57.76;94369.56;5076456;28;20526;-65
2021/12/20 02:28:35;;;;;;;4.10;3.72;;;;;;;4.25;57.89;94372.28;5075638;28;20193;-64
2021/12/20 02:39:15;;;;;;;4.18;3.88;;;;;;;4.28;58.15;94366.16;5075287;28;20193;-64
2021/12/20 02:41:42;;;;;;;4.00;3.80;;;;;;;4.27;58.10;94367.28;5076414;28;20185;-64
2021/12/20 02:44:17;;;;;;;3.67;3.47;;;;;;;4.29;58.04;94375.16;5076500;28;20181;-64
2021/12/20 02:46:50;;;;;;;3.88;3.53;;;;;;;4.29;58.36;94378.69;5092294;28;20196;-64
2021/12/20 02:49:20;;;;;;;4.32;4.03;;;;;;;4.30;58.49;94380.28;5075052;28;20217;-64
2021/12/20 02:51:51;;;;;;;4.22;3.92;;;;;;;4.31;57.89;94384.59;5076191;28;20185;-64
2021/12/20 02:54:19;;;;;;;5.40;5.00;;;;;;;4.31;58.07;94384.59;5075397;28;20205;-63
2021/12/20 02:56:46;;;;;;;6.18;5.68;;;;;;;4.30;58.23;94377.56;5076241;28;20225;-63
2021/12/20 02:59:14;;;;;;;4.88;4.47;;;;;;;4.27;58.46;94374.69;5075897;28;20188;-63
2021/12/20 03:01:44;;;;;;;5.32;4.63;;;;;;;4.27;58.32;94372.75;5075989;28;20185;-63
2021/12/20 03:04:11;;;;;;;4.68;4.38;;;;;;;4.26;58.36;94373.88;5076017;28;20200;-63
2021/12/20 03:06:40;;;;;;;4.40;4.10;;;;;;;4.25;58.62;94371.50;5076187;28;20207;-63
2021/12/20 03:09:12;;;;;;;4.75;4.40;;;;;;;4.24;58.29;94373.41;5075197;28;20201;-64
2021/12/20 03:11:39;;;;;;;4.40;4.10;;;;;;;4.22;58.29;94364.75;5075521;28;20189;-64
2021/12/20 03:14:15;;;;;;;3.75;3.55;;;;;;;4.20;58.76;94364.28;5075785;28;20193;-64
2021/12/20 03:16:42;;;;;;;4.05;3.75;;;;;;;4.23;58.67;94363.63;5075862;28;20207;-64
2021/12/20 03:19:09;;;;;;;3.90;3.70;;;;;;;4.22;58.79;94363.97;5075342;28;20267;-64
2021/12/20 03:21:36;;;;;;;3.95;3.65;;;;;;;4.21;58.32;94354.97;5075660;28;20194;-64
2021/12/20 03:24:03;;;;;;;4.22;3.92;;;;;;;4.17;59.11;94356.75;5074650;28;20211;-64
2021/12/20 03:26:32;;;;;;;4.15;3.85;;;;;;;4.20;58.54;94356.09;5075462;28;20628;-64
2021/12/20 03:28:58;;;;;;;4.70;4.40;;;;;;;4.22;58.78;94364.75;5091541;28;20189;-64
2021/12/20 03:31:25;;;;;;;4.40;4.10;;;;;;;4.19;58.62;94365.41;5075190;28;20228;-64
2021/12/20 03:33:52;;;;;;;4.10;3.90;;;;;;;4.21;58.75;94360.44;5075452;28;20182;-64
2021/12/20 03:36:19;;;;;;;4.00;3.70;;;;;;;4.21;58.49;94360.44;5091596;28;20207;-64
2021/12/20 03:38:46;;;;;;;3.92;3.63;;;;;;;4.24;58.54;94372.59;5075490;28;20192;-64
2021/12/20 03:41:13;;;;;;;4.50;4.20;;;;;;;4.21;58.66;94367.81;5074776;28;20185;-64
2021/12/20 03:43:41;;;;;;;4.15;3.95;;;;;;;4.21;58.73;94371.34;5090928;28;20610;-64
2021/12/20 03:46:08;;;;;;;4.40;4.10;;;;;;;4.23;58.73;94373.75;5075062;28;20181;-64
2021/12/20 03:48:35;;;;;;;4.72;4.43;;;;;;;4.20;58.99;94366.22;5075708;28;20211;-64
2021/12/20 03:51:03;;;;;;;5.03;4.72;;;;;;;4.21;58.95;94373.25;5075178;28;20216;-64
2021/12/20 03:53:30;;;;;;;4.70;4.40;;;;;;;4.23;59.19;94382.72;5075309;28;20208;-64
2021/12/20 03:55:57;;;;;;;4.72;4.43;;;;;;;4.21;59.41;94374.09;5075024;28;20237;-64
2021/12/20 03:58:26;;;;;;;4.68;4.38;;;;;;;4.19;59.58;94384.53;5075181;28;20196;-64
2021/12/20 04:00:55;;;;;;;5.18;4.78;;;;;;;4.17;59.40;94384.03;5075156;28;20208;-64
2021/12/20 04:03:21;;;;;;;5.55;5.15;;;;;;;4.14;59.60;94368.34;5074887;28;20192;-64
2021/12/20 04:05:48;;;;;;;5.13;4.72;;;;;;;4.17;59.71;94372.31;5075027;28;20196;-64
2021/12/20 04:08:15;;;;;;;5.40;5.00;;;;;;;4.17;60.17;94388.69;5075052;28;20536;-64
2021/12/20 04:10:42;;;;;;;4.82;4.53;;;;;;;4.14;60.30;94392.09;5091250;28;20220;-64
2021/12/20 04:13:09;;;;;;;5.30;4.90;;;;;;;4.14;60.95;94389.34;5074140;28;20216;-64
2021/12/20 04:15:36;;;;;;;5.15;4.85;;;;;;;4.07;61.29;94385.22;5091042;28;20517;-64
2021/12/20 04:18:05;;;;;;;5.90;5.45;;;;;;;4.08;61.52;94389.56;5075010;28;20286;-64
2021/12/20 04:20:32;;;;;;;6.07;5.68;;;;;;;4.09;61.37;94393.88;5091399;28;20529;-65
2021/12/20 04:22:59;;;;;;;6.47;5.97;;;;;;;4.10;61.63;94403.69;5074699;28;20177;-64
2021/12/20 04:25:26;;;;;;;6.40;5.90;;;;;;;4.05;61.67;94395.66;5090964;28;20208;-64
2021/12/20 04:27:53;;;;;;;6.10;5.63;;;;;;;4.06;61.63;94407.38;5090494;28;20188;-64
2021/12/20 04:30:20;;;;;;;6.55;6.05;;;;;;;4.06;61.79;94401.91;5074469;28;20227;-64
2021/12/20 04:32:47;;;;;;;5.70;5.30;;;;;;;4.10;61.47;94392.75;5073986;28;20196;-64
2021/12/20 04:35:17;;;;;;;5.80;5.40;;;;;;;4.11;61.54;94396.28;5074529;28;20192;-64
2021/12/20 04:37:46;;;;;;;5.22;4.82;;;;;;;4.14;61.49;94403.00;5090732;28;20211;-65
2021/12/20 04:40:18;;;;;;;4.70;4.40;;;;;;;4.13;60.68;94402.19;5073952;28;20193;-64
2021/12/20 04:42:45;;;;;;;4.82;4.45;;;;;;;4.13;60.31;94424.03;5074539;28;20181;-64
2021/12/20 04:45:12;;;;;;;5.20;4.80;;;;;;;4.12;60.57;94418.91;5074372;28;20465;-66
2021/12/20 04:47:39;;;;;;;5.10;4.78;;;;;;;4.09;60.85;94421.16;5073667;28;20221;-65
2021/12/20 04:50:07;;;;;;;5.30;4.63;;;;;;;4.11;60.70;94420.84;5090556;28;20224;-64
2021/12/20 04:52:35;;;;;;;4.32;3.92;;;;;;;4.09;60.60;94421.16;5077429;28;20254;-64
2021/12/20 04:55:04;;;;;;;4.57;4.18;;;;;;;4.05;61.06;94424.88;5078772;28;20606;-64
2021/12/20 04:57:31;;;;;;;4.53;4.22;;;;;;;4.07;61.49;94430.81;5078166;28;20247;-64
2021/12/20 04:59:58;;;;;;;4.10;3.80;;;;;;;4.09;61.24;94436.75;5094358;28;20209;-64
2021/12/20 05:02:25;;;;;;;4.57;4.18;;;;;;;4.10;61.15;94436.44;5094964;28;20197;-64
2021/12/20 05:04:51;;;;;;;4.07;3.78;;;;;;;4.04;61.51;94440.47;5078401;28;20185;-64
2021/12/20 05:07:18;;;;;;;4.05;3.75;;;;;;;4.07;61.62;94430.81;5077909;28;20193;-64
2021/12/20 05:09:46;;;;;;;4.15;3.85;;;;;;;4.10;61.71;94435.59;5077799;28;20190;-64
2021/12/20 05:12:14;;;;;;;4.00;3.70;;;;;;;4.10;61.80;94435.59;5094426;28;20208;-64
2021/12/20 05:14:43;;;;;;;4.32;4.00;;;;;;;4.12;62.22;94436.09;5077719;28;20204;-64
2021/12/20 05:17:12;;;;;;;4.93;4.53;;;;;;;4.08;62.29;94441.41;5078112;28;20181;-64
2021/12/20 05:19:40;;;;;;;5.28;4.88;;;;;;;4.07;62.37;94452.66;5094096;28;20216;-64
2021/12/20 05:22:07;;;;;;;4.43;4.13;;;;;;;4.12;62.47;94457.13;5077958;28;20237;-64
2021/12/20 05:24:34;;;;;;;4.28;3.97;;;;;;;4.06;62.12;94459.22;5077666;28;20196;-64
2021/12/20 05:27:02;;;;;;;4.25;3.88;;;;;;;4.09;62.43;94453.13;5093690;28;20205;-64
2021/12/20 05:29:29;;;;;;;3.67;3.47;;;;;;;4.07;62.35;94456.19;5077144;28;20193;-64
2021/12/20 05:31:56;;;;;;;4.22;3.90;;;;;;;4.09;62.06;94461.31;5093816;28;20213;-64
2021/12/20 05:34:22;;;;;;;4.22;3.92;;;;;;;4.12;62.04;94463.38;5093745;28;20189;-64
2021/12/20 05:36:49;;;;;;;3.75;3.45;;;;;;;4.13;61.89;94462.25;5076977;28;20612;-64
2021/12/20 05:39:16;;;;;;;4.63;4.30;;;;;;;4.15;61.93;94470.13;5077545;28;20189;-66
2021/12/20 05:41:43;;;;;;;4.75;4.45;;;;;;;4.14;62.03;94471.22;5077829;28;20196;-64
2021/12/20 05:44:12;;;;;;;5.10;4.70;;;;;;;4.09;62.00;94469.50;5077446;28;20196;-64
2021/12/20 05:46:38;;;;;;;4.68;4.32;;;;;;;4.06;62.10;94468.22;5077287;28;20265;-64
2021/12/20 05:49:05;;;;;;;4.68;4.28;;;;;;;4.04;62.03;94465.03;5077595;28;20189;-64
2021/12/20 05:51:32;;;;;;;4.80;4.50;;;;;;;4.03;62.33;94470.78;5076870;28;20212;-64
2021/12/20 05:53:59;;;;;;;5.97;5.47;;;;;;;4.02;62.62;94466.47;5077850;28;20528;-64
2021/12/20 05:56:26;;;;;;;5.45;5.05;;;;;;;4.05;62.20;94476.72;5093259;28;20241;-64
2021/12/20 05:58:52;;;;;;;4.88;4.55;;;;;;;4.03;61.84;94476.25;5076538;28;20515;-64
2021/12/20 06:01:21;;;;;;;4.30;4.00;;;;;;;4.02;62.29;94483.63;5076426;28;20201;-64
2021/12/20 06:03:47;;;;;;;4.63;4.28;;;;;;;4.05;62.23;94472.06;5092597;28;20201;-64
2021/12/20 06:06:15;;;;;;;5.90;5.50;;;;;;;4.06;61.97;94470.94;5077371;28;20204;-64
2021/12/20 06:08:42;;;;;;;4.97;4.68;;;;;;;4.07;62.15;94472.56;5077233;28;20196;-64
2021/12/20 06:11:09;;;;;;;4.28;3.97;;;;;;;4.07;62.15;94471.75;5077286;28;20216;-64
2021/12/20 06:13:35;;;;;;;4.07;3.78;;;;;;;4.07;62.15;94479.94;5093458;28;20205;-63
2021/12/20 06:16:02;;;;;;;4.10;3.80;;;;;;;4.09;61.88;94486.66;5093158;28;20204;-66
2021/12/20 06:18:30;;;;;;;4.40;4.10;;;;;;;4.11;61.70;94478.16;5077122;28;20193;-64
2021/12/20 06:20:57;;;;;;;4.13;3.78;;;;;;;4.14;61.76;94487.59;5092753;28;20197;-65
2021/12/20 06:23:24;;;;;;;3.90;3.70;;;;;;;4.13;61.66;94481.34;5077009;28;20201;-64
2021/12/20 06:25:51;;;;;;;3.35;3.15;;;;;;;4.04;61.62;94489.59;5092842;28;20201;-64
2021/12/20 06:28:17;;;;;;;3.40;3.20;;;;;;;4.07;61.92;94482.69;5076783;28;20185;-63
2021/12/20 06:30:44;;;;;;;3.80;3.50;;;;;;;4.11;62.03;94486.34;5076874;28;20213;-64
2021/12/20 06:33:11;;;;;;;3.42;3.22;;;;;;;4.10;61.54;94490.19;5076681;28;20181;-64
2021/12/20 06:35:39;;;;;;;3.60;3.30;;;;;;;4.09;61.30;94489.38;5076439;28;20558;-61
2021/12/20 06:38:08;;;;;;;3.28;3.08;;;;;;;4.05;61.34;94491.16;5092472;28;20200;-64
2021/12/20 06:40:36;;;;;;;3.40;3.20;;;;;;;4.06;61.08;94490.03;5076663;28;20199;-64
2021/12/20 06:43:03;;;;;;;2.95;2.75;;;;;;;4.08;60.14;94487.78;5076650;28;20181;-64
2021/12/20 06:45:30;;;;;;;3.30;3.10;;;;;;;4.13;59.79;94491.47;5076567;28;20195;-64
2021/12/20 06:47:57;;;;;;;3.43;3.23;;;;;;;4.11;59.86;94489.09;5075363;28;20756;-65
2021/12/20 06:50:24;;;;;;;3.50;3.20;;;;;;;4.14;59.69;94491.16;5076331;28;20430;-68
2021/12/20 06:52:52;;;;;;;3.20;3.00;;;;;;;4.19;60.00;94503.81;5075410;28;20207;-66
2021/12/20 06:55:19;;;;;;;3.78;3.47;;;;;;;4.20;59.83;94510.88;5075554;28;20442;-63
2021/12/20 06:57:46;;;;;;;3.90;3.60;;;;;;;4.20;60.09;94502.69;5074673;28;20773;-63
2021/12/20 07:00:14;;;;;;;4.05;3.75;;;;;;;4.14;60.45;94506.72;5076332;28;20191;-64
2021/12/20 07:02:40;;;;;;;3.67;3.38;;;;;;;4.14;60.66;94515.72;5075456;28;20211;-64
2021/12/20 07:05:08;;;;;;;3.53;3.33;;;;;;;4.15;60.63;94522.00;5094020;28;20197;-65
2021/12/20 07:07:35;;;;;;;3.38;3.17;;;;;;;4.16;60.69;94509.94;5076497;28;20270;-65
2021/12/20 07:10:04;;;;;;;2.88;2.72;;;;;;;4.18;60.33;94508.50;5092542;28;20207;-63
2021/12/20 07:12:33;;;;;;;3.58;3.38;;;;;;;4.24;60.46;94511.81;5092273;28;20213;-62
2021/12/20 07:15:00;;;;;;;3.53;3.22;;;;;;;4.27;60.25;94516.63;5074884;28;20616;-63
2021/12/20 07:17:27;;;;;;;3.70;3.40;;;;;;;4.31;60.51;94506.66;5092530;28;20196;-62
2021/12/20 07:19:53;;;;;;;3.55;3.30;;;;;;;4.33;60.58;94507.16;5091283;28;20431;-63
2021/12/20 07:22:20;;;;;;;3.60;3.30;;;;;;;4.37;60.24;94512.75;5092082;28;20205;-64
2021/12/20 07:24:47;;;;;;;3.10;2.90;;;;;;;4.37;60.63;94512.75;5076019;28;20181;-64
2021/12/20 07:27:18;;;;;;;3.30;3.10;;;;;;;4.38;60.21;94501.50;5075427;28;20201;-64
2021/12/20 07:29:45;;;;;;;3.33;3.13;;;;;;;4.46;60.09;94510.78;5075117;28;20193;-63
2021/12/20 07:32:12;;;;;;;3.00;2.80;;;;;;;4.43;59.59;94512.25;5092083;28;20223;-63
2021/12/20 07:34:39;;;;;;;3.10;2.90;;;;;;;4.39;59.88;94508.56;5075877;28;20185;-62
2021/12/20 07:37:07;;;;;;;3.17;2.97;;;;;;;4.41;59.90;94519.16;5076035;28;20204;-64
2021/12/20 07:39:34;;;;;;;3.50;3.30;;;;;;;4.41;60.08;94519.16;5074684;28;20450;-62
2021/12/20 07:42:01;;;;;;;3.72;3.42;;;;;;;4.39;59.93;94515.94;5075710;28;20185;-62
2021/12/20 07:44:29;;;;;;;3.47;3.20;;;;;;;4.45;59.78;94517.38;5075414;28;20513;-62
2021/12/20 07:46:56;;;;;;;3.67;3.38;;;;;;;4.45;59.94;94525.56;5074808;28;20212;-62
2021/12/20 07:49:23;;;;;;;3.60;3.30;;;;;;;4.46;60.34;94524.44;5075792;28;20177;-62
2021/12/20 07:51:51;;;;;;;3.35;3.10;;;;;;;4.48;59.95;94520.25;5075759;28;20205;-63
2021/12/20 07:54:19;;;;;;;3.75;3.45;;;;;;;4.53;59.74;94522.00;5075818;28;20201;-62
2021/12/20 07:56:45;;;;;;;3.53;3.33;;;;;;;4.55;60.09;94523.28;5075486;28;20233;-66
2021/12/20 07:59:12;;;;;;;3.90;3.60;;;;;;;4.59;60.01;94520.69;5075148;28;20616;-62
2021/12/20 08:01:40;;;;;;;3.72;3.50;;;;;;;4.67;59.80;94519.06;5075419;28;20604;-63
2021/12/20 08:04:08;;;;;;;3.45;3.25;;;;;;;4.82;59.06;94521.22;5075280;28;20181;-62
2021/12/20 08:06:35;;;;;;;3.80;3.53;;;;;;;4.86;58.75;94526.81;5074477;28;20284;-63
2021/12/20 08:09:02;;;;;;;3.08;2.88;;;;;;;4.83;58.46;94539.22;5075294;28;20212;-63
2021/12/20 08:11:29;;;;;;;3.78;3.47;;;;;;;4.83;58.13;94528.31;5075313;28;20236;-66
2021/12/20 08:13:55;;;;;;;3.30;3.10;;;;;;;4.81;58.45;94545.00;5091384;28;20207;-66
2021/12/20 08:16:22;;;;;;;3.78;3.47;;;;;;;4.80;58.15;94531.69;5075310;28;20200;-64
2021/12/20 08:18:50;;;;;;;3.45;3.15;;;;;;;4.80;57.82;94542.63;5075154;28;20189;-61
2021/12/20 08:21:17;;;;;;;2.22;2.13;;;;;;;4.71;57.50;94550.84;5091141;28;20189;-67
2021/12/20 08:23:44;;;;;;;2.83;2.63;;;;;;;4.71;57.71;94548.09;5074853;28;20561;-66
2021/12/20 08:26:11;;;;;;;2.80;2.65;;;;;;;4.75;57.88;94534.59;5076086;28;20196;-64
2021/12/20 08:28:38;;;;;;;3.40;3.20;;;;;;;4.80;57.48;94548.09;5094804;28;20424;-66
2021/12/20 08:31:06;;;;;;;3.70;3.40;;;;;;;4.85;57.55;94553.34;5094159;28;20428;-63
2021/12/20 08:33:33;;;;;;;3.35;3.15;;;;;;;4.85;57.19;94558.03;5078232;28;20437;-66
2021/12/20 08:36:02;;;;;;;3.03;2.83;;;;;;;4.76;57.69;94552.59;5078954;28;20192;-63
2021/12/20 08:38:28;;;;;;;4.20;3.90;;;;;;;4.72;57.75;94549.72;5077263;28;20423;-66
2021/12/20 08:40:55;;;;;;;3.60;3.40;;;;;;;4.75;57.76;94553.72;5078957;28;20200;-62
2021/12/20 08:43:23;;;;;;;3.13;2.88;;;;;;;4.77;57.68;94551.47;5079148;28;20185;-62
2021/12/20 08:45:50;;;;;;;3.70;3.40;;;;;;;4.80;57.41;94548.09;5078730;28;20185;-62
2021/12/20 08:48:17;;;;;;;2.60;2.40;;;;;;;4.83;56.70;94548.22;5078777;28;20195;-62
2021/12/20 08:50:44;;;;;;;2.42;2.33;;;;;;;4.81;56.76;94555.94;5078292;28;20203;-61
2021/12/20 08:53:13;;;;;;;2.65;2.45;;;;;;;4.79;56.83;94562.84;5077513;28;20638;-61
2021/12/20 08:55:40;;;;;;;2.60;2.40;;;;;;;4.78;56.93;94548.41;5078578;28;20185;-61
2021/12/20 08:58:08;;;;;;;2.45;2.35;;;;;;;4.80;57.16;94551.63;5077623;28;20200;-61
2021/12/20 09:00:36;;;;;;;2.58;2.47;;;;;;;4.85;57.05;94547.09;5078414;28;20242;-62
2021/12/20 09:03:04;;;;;;;3.00;2.80;;;;;;;4.99;58.70;94550.41;5077594;28;20201;-61
2021/12/20 09:05:32;;;;;;;3.47;2.80;;;;;;;5.22;59.11;94568.09;5094293;28;20208;-61
2021/12/20 09:08:01;;;;;;;2.60;2.40;;;;;;;5.12;57.21;94548.53;5077363;28;20446;-65
2021/12/20 09:10:31;;;;;;;2.63;2.42;;;;;;;5.04;57.12;94545.53;5078475;28;20205;-63
2021/12/20 09:12:58;;;;;;;2.85;2.65;;;;;;;5.01;57.59;94546.22;5077233;28;20213;-63
2021/12/20 09:15:25;;;;;;;2.42;2.22;;;;;;;4.98;57.31;94544.13;5094265;28;20518;-64
2021/12/20 09:17:54;;;;;;;2.80;2.60;;;;;;;4.96;57.98;94540.91;5078091;28;20181;-62
2021/12/20 09:20:23;;;;;;;2.55;2.30;;;;;;;4.95;56.96;94539.31;5077858;28;20177;-62
2021/12/20 09:22:52;;;;;;;2.80;2.60;;;;;;;4.87;57.74;94528.44;5077976;28;20243;-61
2021/12/20 09:25:20;;;;;;;2.40;2.20;;;;;;;4.92;57.54;94530.97;5077128;28;20189;-62
2021/12/20 09:27:49;;;;;;;3.17;2.97;;;;;;;4.87;56.92;94536.66;5078057;28;20193;-62
2021/12/20 09:30:16;;;;;;;4.20;3.90;;;;;;;4.88;57.88;94536.31;5077150;28;20193;-62
2021/12/20 09:32:43;;;;;;;4.57;4.28;;;;;;;4.90;56.89;94531.31;5077471;28;20652;-65
2021/12/20 09:35:10;;;;;;;4.55;4.15;;;;;;;4.92;57.08;94537.25;5077181;28;20197;-61
2021/12/20 09:37:38;;;;;;;4.00;3.70;;;;;;;4.93;56.62;94527.91;5076475;28;20181;-63
2021/12/20 09:40:05;;;;;;;4.00;3.70;;;;;;;4.95;56.78;94527.59;5092837;28;20423;-61
2021/12/20 09:42:33;;;;;;;3.67;3.38;;;;;;;5.03;56.48;94532.19;5077664;28;20186;-62
2021/12/20 09:45:02;;;;;;;3.40;3.10;;;;;;;5.17;56.50;94527.28;5077360;28;20598;-62
2021/12/20 09:47:32;;;;;;;1.98;1.88;;;;;;;5.25;55.66;94537.34;5077863;28;20178;-61
2021/12/20 09:49:59;;;;;;;2.42;2.22;;;;;;;5.22;55.27;94526.28;5077386;28;20185;-61
2021/12/20 09:52:26;;;;;;;2.90;2.70;;;;;;;5.31;55.81;94516.91;5077400;28;20220;-61
2021/12/20 09:54:53;;;;;;;2.75;2.55;;;;;;;5.59;56.33;94523.75;5093556;28;20205;-61
2021/12/20 09:57:21;;;;;;;2.20;2.00;;;;;;;5.58;55.31;94519.44;5077132;28;20240;-61
2021/12/20 09:59:49;;;;;;;2.40;2.17;;;;;;;5.53;55.50;94514.97;5077113;28;20185;-61
2021/12/20 10:02:20;;;;;;;2.10;2.00;;;;;;;5.47;55.98;94521.75;5077210;28;20189;-62
2021/12/20 10:04:48;;;;;;;2.00;1.90;;;;;;;5.46;55.72;94529.19;5092185;28;20488;-65
2021/12/20 10:07:18;;;;;;;2.65;2.45;;;;;;;5.41;55.94;94515.72;5093168;28;20536;-64
2021/12/20 10:09:47;;;;;;;2.30;2.20;;;;;;;5.38;56.15;94521.84;5076916;28;20181;-65
2021/12/20 10:12:18;;;;;;;2.00;1.90;;;;;;;5.40;56.39;94525.03;5077293;28;20263;-64
2021/12/20 10:14:53;;;;;;;1.58;1.58;;;;;;;5.36;56.13;94517.84;5093003;28;20193;-64
2021/12/20 10:17:22;;;;;;;1.70;1.60;;;;;;;5.29;56.17;94508.22;5076208;28;20601;-63
2021/12/20 10:19:49;;;;;;;2.13;2.00;;;;;;;5.34;56.71;94504.50;5076755;28;20710;-63
2021/12/20 10:22:25;;;;;;;2.20;2.10;;;;;;;5.39;56.62;94501.56;5076066;28;20216;-64
2021/12/20 10:24:52;;;;;;;2.10;1.90;;;;;;;5.42;56.88;94511.03;5077225;28;20196;-63
2021/12/20 10:27:31;;;;;;;2.30;1.90;;;;;;;5.57;57.82;94521.38;5077014;28;20192;-64
2021/12/20 10:29:59;;;;;;;2.67;2.47;;;;;;;5.62;57.02;94525.81;5076181;28;20197;-64
2021/12/20 10:32:41;;;;;;;2.20;2.10;;;;;;;5.61;56.91;94526.97;5076552;28;20213;-63
2021/12/20 10:35:33;;;;;;;2.13;2.03;;;;;;;5.50;57.27;94526.56;5075934;28;20446;-62
2021/12/20 10:38:03;;;;;;;2.33;2.15;;;;;;;5.38;57.91;94527.31;5092775;28;20204;-64
2021/12/20 10:40:30;;;;;;;2.22;2.13;;;;;;;5.28;58.63;94527.69;5076586;28;20185;-63
2021/12/20 10:42:59;;;;;;;2.13;2.03;;;;;;;5.22;58.82;94539.97;5075747;28;20200;-62
2021/12/20 10:45:27;;;;;;;2.42;2.33;;;;;;;5.12;59.75;94546.63;5076381;28;20185;-65
2021/12/20 10:47:55;;;;;;;2.70;2.50;;;;;;;5.08;59.24;94542.94;5075502;28;20200;-64
2021/12/20 10:50:25;;;;;;;2.70;2.50;;;;;;;5.02;58.88;94545.06;5091346;28;20431;-63
2021/12/20 10:52:53;;;;;;;2.70;2.50;;;;;;;5.02;59.00;94538.81;5075529;28;20436;-64
2021/12/20 10:55:38;;;;;;;2.80;2.60;;;;;;;5.04;59.48;94534.59;5076502;28;20189;-65
2021/12/20 10:58:19;;;;;;;3.17;2.97;;;;;;;5.05;59.63;94543.63;5092676;28;20189;-63
2021/12/20 11:00:46;;;;;;;3.20;2.90;;;;;;;5.01;59.75;94540.75;5075322;28;20232;-63
2021/12/20 11:03:25;;;;;;;3.92;3.30;;;;;;;5.09;60.36;94550.03;5076251;28;20185;-63
2021/12/20 11:11:21;;;;;;;2.65;2.45;;;;;;;5.21;59.70;94541.91;5075306;28;20197;-63
2021/12/20 11:13:47;;;;;;;4.03;3.63;;;;;;;5.31;59.94;94540.72;5074657;28;20232;-63
2021/12/20 11:16:27;;;;;;;3.50;3.20;;;;;;;5.38;59.34;94526.50;5076062;28;20185;-63
2021/12/20 11:19:21;;;;;;;3.13;2.80;;;;;;;5.44;58.86;94519.69;5091222;28;20564;-64
2021/12/20 11:21:56;;;;;;;3.00;2.78;;;;;;;5.43;58.57;94515.38;5056591;28;20213;-64
2021/12/20 11:24:25;;;;;;;2.60;2.40;;;;;;;5.38;58.36;94521.84;5091910;28;20203;-64
2021/12/20 11:26:53;;;;;;;2.60;2.45;;;;;;;5.29;59.26;94516.41;5076009;28;20190;-64
2021/12/20 11:29:20;;;;;;;2.83;2.40;;;;;;;5.25;59.41;94515.47;5075434;28;20192;-63
2021/12/20 11:31:48;;;;;;;2.00;1.90;;;;;;;5.18;59.65;94520.69;5075673;28;20192;-63
2021/12/20 11:34:15;;;;;;;2.20;2.03;;;;;;;5.14;59.00;94530.69;5091685;28;20212;-63
2021/12/20 11:36:43;;;;;;;2.33;2.13;;;;;;;5.07;58.76;94527.66;5074543;28;20197;-63
2021/12/20 11:39:11;;;;;;;2.42;2.25;;;;;;;5.03;59.26;94521.25;5075121;28;20539;-62
2021/12/20 11:41:38;;;;;;;2.45;2.20;;;;;;;4.96;59.58;94529.97;5075231;28;20640;-62
2021/12/20 11:44:07;;;;;;;2.30;2.13;;;;;;;4.90;59.55;94530.50;5075379;28;20187;-62
2021/12/20 11:46:41;;;;;;;2.80;2.60;;;;;;;4.86;60.46;94532.28;5075472;28;20205;-65
2021/12/20 11:49:09;;;;;;;2.88;2.55;;;;;;;4.86;60.69;94535.81;5075477;28;20704;-64
2021/12/20 11:51:59;;;;;;;2.78;2.58;;;;;;;4.89;60.59;94545.31;5075347;28;20185;-64
2021/12/20 11:54:50;;;;;;;4.72;4.43;;;;;;;4.89;59.94;94540.63;5074341;28;20212;-65
2021/12/20 11:57:38;;;;;;;3.22;2.92;;;;;;;4.87;59.52;94548.38;5074298;28;20237;-63
2021/12/20 12:00:18;;;;;;;3.40;3.10;;;;;;;4.85;59.63;94552.56;5075330;28;20196;-63
2021/12/20 12:02:45;;;;;;;2.50;2.30;;;;;;;4.87;60.03;94550.31;5090826;28;20205;-63
2021/12/20 12:05:17;;;;;;;3.03;2.80;;;;;;;4.91;60.39;94556.72;5073747;28;20424;-65
2021/12/20 12:07:46;;;;;;;2.75;2.50;;;;;;;4.89;59.51;94551.56;5075247;28;20190;-65
2021/12/20 12:10:15;;;;;;;2.50;2.30;;;;;;;4.93;59.89;94554.44;5090785;28;20621;-64